sensor_id;sensor_type;location;lat;lon;timestamp;pressure;altitude;pressure_sealevel;temperature;humidity
4570;BME280;2297;51.442;6.996;2023-11-19T00:00:25;99601.91;;;11.53;71.63
4570;BME280;2297;51.442;6.996;2023-11-19T00:02:53;99592.69;;;11.39;72.10
4570;BME280;2297;51.442;6.996;2023-11-19T00:05:19;99603.06;;;11.45;72.27
4570;BME280;2297;51.442;6.996;2023-11-19T00:07:46;99613.28;;;11.78;71.03
4570;BME280;2297;51.442;6.996;2023-11-19T00:10:14;99605.16;;;11.85;70.81
4570;BME280;2297;51.442;6.996;2023-11-19T00:12:45;99614.88;;;11.84;71.34
4570;BME280;2297;51.442;6.996;2023-11-19T00:15:12;99622.41;;;11.95;71.12
4570;BME280;2297;51.442;6.996;2023-11-19T00:17:39;99612.25;;;12.06;70.51
4570;BME280;2297;51.442;6.996;2023-11-19T00:20:11;99619.81;;;11.93;70.63
4570;BME280;2297;51.442;6.996;2023-11-19T00:22:38;99619.19;;;11.87;71.02
4570;BME280;2297;51.442;6.996;2023-11-19T00:25:06;99619.06;;;11.90;71.56
4570;BME280;2297;51.442;6.996;2023-11-19T00:27:33;99621.31;;;12.01;71.21
4570;BME280;2297;51.442;6.996;2023-11-19T00:30:00;99628.50;;;12.21;70.50
4570;BME280;2297;51.442;6.996;2023-11-19T00:32:26;99629.25;;;12.24;70.26
4570;BME280;2297;51.442;6.996;2023-11-19T00:34:53;99623.00;;;12.27;70.02
4570;BME280;2297;51.442;6.996;2023-11-19T00:37:21;99625.84;;;12.22;70.07
4570;BME280;2297;51.442;6.996;2023-11-19T00:39:48;99617.47;;;12.09;70.21
4570;BME280;2297;51.442;6.996;2023-11-19T00:42:14;99624.16;;;12.18;69.99
4570;BME280;2297;51.442;6.996;2023-11-19T00:44:41;99608.16;;;12.23;70.73
4570;BME280;2297;51.442;6.996;2023-11-19T00:47:08;99604.59;;;12.24;70.68
4570;BME280;2297;51.442;6.996;2023-11-19T00:49:34;99596.38;;;12.30;70.67
4570;BME280;2297;51.442;6.996;2023-11-19T00:52:01;99603.00;;;12.18;70.83
4570;BME280;2297;51.442;6.996;2023-11-19T00:54:29;99591.09;;;12.30;70.62
4570;BME280;2297;51.442;6.996;2023-11-19T00:56:56;99584.25;;;12.24;71.03
4570;BME280;2297;51.442;6.996;2023-11-19T00:59:23;99579.91;;;12.45;70.91
4570;BME280;2297;51.442;6.996;2023-11-19T01:01:53;99580.88;;;12.21;71.75
4570;BME280;2297;51.442;6.996;2023-11-19T01:04:21;99575.66;;;12.18;71.94
4570;BME280;2297;51.442;6.996;2023-11-19T01:06:49;99595.41;;;12.55;71.21
4570;BME280;2297;51.442;6.996;2023-11-19T01:09:16;99575.31;;;12.71;70.34
4570;BME280;2297;51.442;6.996;2023-11-19T01:11:44;99580.97;;;12.84;69.95
4570;BME280;2297;51.442;6.996;2023-11-19T01:14:10;99589.50;;;12.70;70.88
4570;BME280;2297;51.442;6.996;2023-11-19T01:16:37;99594.28;;;12.83;70.19
4570;BME280;2297;51.442;6.996;2023-11-19T01:19:04;99586.28;;;12.62;70.84
4570;BME280;2297;51.442;6.996;2023-11-19T01:21:30;99577.72;;;12.77;71.07
4570;BME280;2297;51.442;6.996;2023-11-19T01:23:57;99578.53;;;12.79;70.52
4570;BME280;2297;51.442;6.996;2023-11-19T01:26:24;99586.78;;;12.50;71.80
4570;BME280;2297;51.442;6.996;2023-11-19T01:28:53;99587.63;;;12.72;71.36
4570;BME280;2297;51.442;6.996;2023-11-19T01:31:19;99592.25;;;12.67;71.99
4570;BME280;2297;51.442;6.996;2023-11-19T01:33:46;99587.91;;;12.66;71.25
4570;BME280;2297;51.442;6.996;2023-11-19T01:36:13;99591.66;;;12.60;72.03
4570;BME280;2297;51.442;6.996;2023-11-19T01:38:40;99599.41;;;12.65;71.60
4570;BME280;2297;51.442;6.996;2023-11-19T01:41:07;99599.81;;;12.76;71.36
4570;BME280;2297;51.442;6.996;2023-11-19T01:43:35;99595.94;;;12.85;71.00
4570;BME280;2297;51.442;6.996;2023-11-19T01:46:05;99585.53;;;12.80;71.49
4570;BME280;2297;51.442;6.996;2023-11-19T01:48:34;99584.69;;;12.80;71.57
4570;BME280;2297;51.442;6.996;2023-11-19T01:51:02;99585.72;;;12.76;71.72
4570;BME280;2297;51.442;6.996;2023-11-19T01:53:30;99579.06;;;13.08;70.53
4570;BME280;2297;51.442;6.996;2023-11-19T01:55:57;99583.56;;;13.06;70.52
4570;BME280;2297;51.442;6.996;2023-11-19T01:58:24;99590.31;;;13.13;70.55
4570;BME280;2297;51.442;6.996;2023-11-19T02:00:51;99576.22;;;13.13;70.36
4570;BME280;2297;51.442;6.996;2023-11-19T02:03:19;99572.66;;;13.14;70.24
4570;BME280;2297;51.442;6.996;2023-11-19T02:05:47;99573.25;;;13.21;70.41
4570;BME280;2297;51.442;6.996;2023-11-19T02:08:14;99582.66;;;13.07;70.87
4570;BME280;2297;51.442;6.996;2023-11-19T02:10:41;99574.44;;;13.13;70.44
4570;BME280;2297;51.442;6.996;2023-11-19T02:13:08;99563.28;;;13.05;70.93
4570;BME280;2297;51.442;6.996;2023-11-19T02:15:35;99552.84;;;13.02;70.75
4570;BME280;2297;51.442;6.996;2023-11-19T02:18:20;99540.91;;;13.12;71.10
4570;BME280;2297;51.442;6.996;2023-11-19T02:20:47;99530.81;;;13.21;70.54
4570;BME280;2297;51.442;6.996;2023-11-19T02:23:14;99527.66;;;13.12;70.54
4570;BME280;2297;51.442;6.996;2023-11-19T02:25:43;99541.53;;;13.18;70.76
4570;BME280;2297;51.442;6.996;2023-11-19T02:28:16;99544.88;;;13.02;71.16
4570;BME280;2297;51.442;6.996;2023-11-19T02:30:43;99532.66;;;13.19;70.74
4570;BME280;2297;51.442;6.996;2023-11-19T02:33:10;99536.13;;;13.21;70.20
4570;BME280;2297;51.442;6.996;2023-11-19T02:35:38;99526.34;;;13.23;70.26
4570;BME280;2297;51.442;6.996;2023-11-19T02:38:06;99548.47;;;13.42;69.76
4570;BME280;2297;51.442;6.996;2023-11-19T02:40:32;99531.56;;;13.24;70.36
4570;BME280;2297;51.442;6.996;2023-11-19T02:42:59;99525.41;;;13.24;70.63
4570;BME280;2297;51.442;6.996;2023-11-19T02:45:28;99526.31;;;13.43;69.58
4570;BME280;2297;51.442;6.996;2023-11-19T02:47:56;99523.16;;;13.54;69.41
4570;BME280;2297;51.442;6.996;2023-11-19T02:50:23;99528.31;;;13.38;69.80
4570;BME280;2297;51.442;6.996;2023-11-19T02:52:52;99523.53;;;13.05;70.87
4570;BME280;2297;51.442;6.996;2023-11-19T02:55:21;99537.84;;;13.22;70.42
4570;BME280;2297;51.442;6.996;2023-11-19T02:57:49;99523.84;;;13.39;69.41
4570;BME280;2297;51.442;6.996;2023-11-19T03:00:19;99517.28;;;13.47;69.55
4570;BME280;2297;51.442;6.996;2023-11-19T03:02:50;99511.97;;;13.47;69.43
4570;BME280;2297;51.442;6.996;2023-11-19T03:05:24;99523.66;;;13.43;69.48
4570;BME280;2297;51.442;6.996;2023-11-19T03:07:51;99519.59;;;13.55;69.46
4570;BME280;2297;51.442;6.996;2023-11-19T03:10:18;99520.31;;;13.59;68.98
4570;BME280;2297;51.442;6.996;2023-11-19T03:12:44;99513.81;;;13.45;69.15
4570;BME280;2297;51.442;6.996;2023-11-19T03:15:11;99519.66;;;13.54;69.44
4570;BME280;2297;51.442;6.996;2023-11-19T03:17:39;99506.88;;;13.43;69.69
4570;BME280;2297;51.442;6.996;2023-11-19T03:20:09;99501.47;;;13.25;70.26
4570;BME280;2297;51.442;6.996;2023-11-19T03:22:40;99487.97;;;13.51;69.75
4570;BME280;2297;51.442;6.996;2023-11-19T03:25:08;99492.78;;;13.01;70.70
4570;BME280;2297;51.442;6.996;2023-11-19T03:27:35;99510.28;;;13.05;71.11
4570;BME280;2297;51.442;6.996;2023-11-19T03:30:02;99498.47;;;13.33;70.31
4570;BME280;2297;51.442;6.996;2023-11-19T03:32:30;99516.28;;;13.31;69.69
4570;BME280;2297;51.442;6.996;2023-11-19T03:34:56;99520.97;;;13.04;69.98
4570;BME280;2297;51.442;6.996;2023-11-19T03:37:25;99503.38;;;13.22;69.83
4570;BME280;2297;51.442;6.996;2023-11-19T03:39:53;99518.34;;;13.43;68.75
4570;BME280;2297;51.442;6.996;2023-11-19T03:42:20;99518.16;;;13.07;69.12
4570;BME280;2297;51.442;6.996;2023-11-19T03:44:47;99526.41;;;13.01;69.46
4570;BME280;2297;51.442;6.996;2023-11-19T03:47:14;99523.41;;;13.29;68.55
4570;BME280;2297;51.442;6.996;2023-11-19T03:49:41;99520.03;;;13.05;69.29
4570;BME280;2297;51.442;6.996;2023-11-19T03:52:07;99528.06;;;13.03;68.85
4570;BME280;2297;51.442;6.996;2023-11-19T03:54:36;99524.88;;;13.16;68.52
4570;BME280;2297;51.442;6.996;2023-11-19T03:57:03;99527.13;;;13.25;67.93
4570;BME280;2297;51.442;6.996;2023-11-19T03:59:29;99527.50;;;13.16;67.71
4570;BME280;2297;51.442;6.996;2023-11-19T04:01:56;99520.53;;;13.34;67.14
4570;BME280;2297;51.442;6.996;2023-11-19T04:04:25;99529.66;;;13.28;66.70
4570;BME280;2297;51.442;6.996;2023-11-19T04:06:52;99525.75;;;12.95;67.53
4570;BME280;2297;51.442;6.996;2023-11-19T04:09:19;99529.88;;;13.23;67.30
4570;BME280;2297;51.442;6.996;2023-11-19T04:11:48;99529.69;;;13.06;67.33
4570;BME280;2297;51.442;6.996;2023-11-19T04:14:15;99528.78;;;12.86;68.12
4570;BME280;2297;51.442;6.996;2023-11-19T04:16:43;99520.28;;;12.98;67.65
4570;BME280;2297;51.442;6.996;2023-11-19T04:19:10;99526.22;;;12.85;67.73
4570;BME280;2297;51.442;6.996;2023-11-19T04:21:37;99523.28;;;12.91;67.52
4570;BME280;2297;51.442;6.996;2023-11-19T04:24:04;99526.44;;;12.99;66.75
4570;BME280;2297;51.442;6.996;2023-11-19T04:26:30;99529.66;;;13.07;66.69
4570;BME280;2297;51.442;6.996;2023-11-19T04:28:58;99530.16;;;12.95;66.41
4570;BME280;2297;51.442;6.996;2023-11-19T04:31:28;99534.81;;;13.10;66.23
4570;BME280;2297;51.442;6.996;2023-11-19T04:33:55;99527.66;;;13.12;65.99
4570;BME280;2297;51.442;6.996;2023-11-19T04:36:22;99522.59;;;12.65;65.72
4570;BME280;2297;51.442;6.996;2023-11-19T04:38:49;99538.91;;;12.76;65.60
4570;BME280;2297;51.442;6.996;2023-11-19T04:41:16;99540.34;;;13.04;65.01
4570;BME280;2297;51.442;6.996;2023-11-19T04:43:43;99566.19;;;12.78;65.29
4570;BME280;2297;51.442;6.996;2023-11-19T04:46:10;99523.53;;;13.05;64.86
4570;BME280;2297;51.442;6.996;2023-11-19T04:48:37;99524.25;;;13.29;64.50
4570;BME280;2297;51.442;6.996;2023-11-19T04:51:04;99530.34;;;13.11;65.13
4570;BME280;2297;51.442;6.996;2023-11-19T04:53:31;99541.69;;;13.14;65.38
4570;BME280;2297;51.442;6.996;2023-11-19T04:55:58;99549.94;;;13.29;65.01
4570;BME280;2297;51.442;6.996;2023-11-19T04:58:24;99539.66;;;13.42;64.02
4570;BME280;2297;51.442;6.996;2023-11-19T05:00:51;99548.72;;;13.36;64.18
4570;BME280;2297;51.442;6.996;2023-11-19T05:03:20;99555.50;;;13.23;63.69
4570;BME280;2297;51.442;6.996;2023-11-19T05:05:48;99549.13;;;13.06;64.46
4570;BME280;2297;51.442;6.996;2023-11-19T05:08:15;99555.88;;;13.13;64.72
4570;BME280;2297;51.442;6.996;2023-11-19T05:10:42;99550.09;;;13.26;64.27
4570;BME280;2297;51.442;6.996;2023-11-19T05:13:08;99547.72;;;12.97;64.85
4570;BME280;2297;51.442;6.996;2023-11-19T05:15:35;99553.94;;;12.96;65.07
4570;BME280;2297;51.442;6.996;2023-11-19T05:18:03;99560.31;;;13.13;64.59
4570;BME280;2297;51.442;6.996;2023-11-19T05:20:32;99554.16;;;12.92;65.26
4570;BME280;2297;51.442;6.996;2023-11-19T05:22:59;99542.34;;;12.99;65.35
4570;BME280;2297;51.442;6.996;2023-11-19T05:25:26;99539.84;;;13.17;64.15
4570;BME280;2297;51.442;6.996;2023-11-19T05:27:53;99553.59;;;13.26;64.12
4570;BME280;2297;51.442;6.996;2023-11-19T05:30:19;99551.63;;;13.09;64.22
4570;BME280;2297;51.442;6.996;2023-11-19T05:32:46;99549.47;;;13.19;63.55
4570;BME280;2297;51.442;6.996;2023-11-19T05:35:13;99550.31;;;13.20;63.55
4570;BME280;2297;51.442;6.996;2023-11-19T05:37:41;99550.50;;;13.15;63.67
4570;BME280;2297;51.442;6.996;2023-11-19T05:40:08;99545.81;;;13.42;63.24
4570;BME280;2297;51.442;6.996;2023-11-19T05:42:39;99542.22;;;13.43;63.11
4570;BME280;2297;51.442;6.996;2023-11-19T05:45:07;99542.66;;;13.53;62.76
4570;BME280;2297;51.442;6.996;2023-11-19T05:47:34;99544.66;;;13.48;62.99
4570;BME280;2297;51.442;6.996;2023-11-19T05:50:00;99554.41;;;13.47;62.82
4570;BME280;2297;51.442;6.996;2023-11-19T05:52:27;99569.59;;;13.44;62.71
4570;BME280;2297;51.442;6.996;2023-11-19T05:54:59;99560.53;;;13.50;62.71
4570;BME280;2297;51.442;6.996;2023-11-19T05:57:30;99570.31;;;13.28;62.84
4570;BME280;2297;51.442;6.996;2023-11-19T05:59:57;99564.78;;;13.33;62.74
4570;BME280;2297;51.442;6.996;2023-11-19T06:02:24;99556.41;;;13.42;62.42
4570;BME280;2297;51.442;6.996;2023-11-19T06:04:52;99574.88;;;13.25;62.83
4570;BME280;2297;51.442;6.996;2023-11-19T06:07:19;99558.25;;;12.99;63.03
4570;BME280;2297;51.442;6.996;2023-11-19T06:09:45;99567.69;;;13.27;62.43
4570;BME280;2297;51.442;6.996;2023-11-19T06:12:14;99562.31;;;13.08;62.84
4570;BME280;2297;51.442;6.996;2023-11-19T06:14:40;99554.09;;;12.93;63.16
4570;BME280;2297;51.442;6.996;2023-11-19T06:17:07;99577.22;;;13.10;62.58
4570;BME280;2297;51.442;6.996;2023-11-19T06:19:36;99546.72;;;12.79;63.35
4570;BME280;2297;51.442;6.996;2023-11-19T06:22:02;99554.16;;;12.92;62.53
4570;BME280;2297;51.442;6.996;2023-11-19T06:24:29;99561.28;;;12.69;63.33
4570;BME280;2297;51.442;6.996;2023-11-19T06:26:56;99559.44;;;12.92;62.74
4570;BME280;2297;51.442;6.996;2023-11-19T06:29:24;99563.22;;;13.07;61.85
4570;BME280;2297;51.442;6.996;2023-11-19T06:31:50;99562.53;;;13.24;61.54
4570;BME280;2297;51.442;6.996;2023-11-19T06:34:17;99561.38;;;13.29;61.15
4570;BME280;2297;51.442;6.996;2023-11-19T06:36:43;99565.84;;;13.29;60.69
4570;BME280;2297;51.442;6.996;2023-11-19T06:39:10;99570.66;;;13.19;60.33
4570;BME280;2297;51.442;6.996;2023-11-19T06:41:37;99569.00;;;12.96;61.01
4570;BME280;2297;51.442;6.996;2023-11-19T06:44:04;99574.97;;;13.22;59.83
4570;BME280;2297;51.442;6.996;2023-11-19T06:46:32;99572.56;;;12.95;59.82
4570;BME280;2297;51.442;6.996;2023-11-19T06:48:59;99569.72;;;13.00;59.56
4570;BME280;2297;51.442;6.996;2023-11-19T06:51:26;99585.25;;;12.66;59.87
4570;BME280;2297;51.442;6.996;2023-11-19T06:53:52;99591.34;;;12.68;59.89
4570;BME280;2297;51.442;6.996;2023-11-19T06:56:21;99590.44;;;12.90;59.15
4570;BME280;2297;51.442;6.996;2023-11-19T06:58:47;99594.66;;;12.73;59.63
4570;BME280;2297;51.442;6.996;2023-11-19T07:01:14;99598.94;;;13.19;58.43
4570;BME280;2297;51.442;6.996;2023-11-19T07:03:42;99612.84;;;12.83;58.75
4570;BME280;2297;51.442;6.996;2023-11-19T07:06:10;99593.66;;;12.98;58.40
4570;BME280;2297;51.442;6.996;2023-11-19T07:08:38;99595.09;;;13.05;57.95
4570;BME280;2297;51.442;6.996;2023-11-19T07:11:04;99597.91;;;13.02;58.25
4570;BME280;2297;51.442;6.996;2023-11-19T07:13:31;99600.38;;;13.27;57.43
4570;BME280;2297;51.442;6.996;2023-11-19T07:15:58;99599.72;;;13.00;58.06
4570;BME280;2297;51.442;6.996;2023-11-19T07:18:25;99601.53;;;12.57;59.09
4570;BME280;2297;51.442;6.996;2023-11-19T07:20:53;99601.16;;;12.66;58.95
4570;BME280;2297;51.442;6.996;2023-11-19T07:23:20;99598.94;;;13.19;57.86
4570;BME280;2297;51.442;6.996;2023-11-19T07:25:47;99609.81;;;12.92;58.41
4570;BME280;2297;51.442;6.996;2023-11-19T07:28:15;99599.44;;;12.86;58.94
4570;BME280;2297;51.442;6.996;2023-11-19T07:30:42;99605.69;;;12.85;58.57
4570;BME280;2297;51.442;6.996;2023-11-19T07:33:09;99615.84;;;12.73;58.29
4570;BME280;2297;51.442;6.996;2023-11-19T07:35:36;99626.59;;;12.70;58.75
4570;BME280;2297;51.442;6.996;2023-11-19T07:38:04;99614.84;;;12.98;58.17
4570;BME280;2297;51.442;6.996;2023-11-19T07:40:30;99626.91;;;12.85;58.34
4570;BME280;2297;51.442;6.996;2023-11-19T07:42:57;99622.75;;;12.77;57.82
4570;BME280;2297;51.442;6.996;2023-11-19T07:45:24;99634.56;;;12.69;58.46
4570;BME280;2297;51.442;6.996;2023-11-19T07:47:52;99627.50;;;12.69;58.39
4570;BME280;2297;51.442;6.996;2023-11-19T07:50:20;99635.09;;;12.78;57.90
4570;BME280;2297;51.442;6.996;2023-11-19T07:52:46;99639.84;;;12.70;57.72
4570;BME280;2297;51.442;6.996;2023-11-19T07:55:14;99635.38;;;12.93;57.49
4570;BME280;2297;51.442;6.996;2023-11-19T07:57:41;99652.41;;;12.65;57.83
4570;BME280;2297;51.442;6.996;2023-11-19T08:00:08;99643.09;;;12.77;57.74
4570;BME280;2297;51.442;6.996;2023-11-19T08:02:37;99649.63;;;12.68;57.50
4570;BME280;2297;51.442;6.996;2023-11-19T08:05:04;99651.91;;;12.77;57.35
4570;BME280;2297;51.442;6.996;2023-11-19T08:07:31;99648.75;;;12.90;57.34
4570;BME280;2297;51.442;6.996;2023-11-19T08:09:58;99653.03;;;12.72;57.44
4570;BME280;2297;51.442;6.996;2023-11-19T08:12:26;99664.84;;;12.63;57.56
4570;BME280;2297;51.442;6.996;2023-11-19T08:14:53;99654.59;;;12.54;57.41
4570;BME280;2297;51.442;6.996;2023-11-19T08:17:19;99660.06;;;12.73;57.47
4570;BME280;2297;51.442;6.996;2023-11-19T08:19:48;99663.78;;;12.67;57.49
4570;BME280;2297;51.442;6.996;2023-11-19T08:22:15;99664.88;;;12.39;58.25
4570;BME280;2297;51.442;6.996;2023-11-19T08:24:42;99669.09;;;12.67;57.79
4570;BME280;2297;51.442;6.996;2023-11-19T08:27:09;99686.28;;;12.57;57.88
4570;BME280;2297;51.442;6.996;2023-11-19T08:29:36;99673.81;;;12.59;57.64
4570;BME280;2297;51.442;6.996;2023-11-19T08:32:04;99671.28;;;12.78;57.21
4570;BME280;2297;51.442;6.996;2023-11-19T08:34:31;99662.94;;;12.67;57.61
4570;BME280;2297;51.442;6.996;2023-11-19T08:36:59;99665.00;;;12.80;57.59
4570;BME280;2297;51.442;6.996;2023-11-19T08:39:26;99668.31;;;12.65;57.49
4570;BME280;2297;51.442;6.996;2023-11-19T08:41:52;99666.00;;;13.00;56.94
4570;BME280;2297;51.442;6.996;2023-11-19T08:44:20;99655.78;;;12.91;57.37
4570;BME280;2297;51.442;6.996;2023-11-19T08:46:49;99655.47;;;12.98;56.82
4570;BME280;2297;51.442;6.996;2023-11-19T08:49:15;99655.75;;;12.70;57.70
4570;BME280;2297;51.442;6.996;2023-11-19T08:51:42;99661.72;;;12.75;57.47
4570;BME280;2297;51.442;6.996;2023-11-19T08:54:09;99647.66;;;12.73;57.65
4570;BME280;2297;51.442;6.996;2023-11-19T08:56:36;99656.06;;;13.05;56.55
4570;BME280;2297;51.442;6.996;2023-11-19T08:59:04;99672.31;;;12.75;57.34
4570;BME280;2297;51.442;6.996;2023-11-19T09:01:31;99667.22;;;13.13;56.65
4570;BME280;2297;51.442;6.996;2023-11-19T09:03:59;99662.84;;;13.12;56.48
4570;BME280;2297;51.442;6.996;2023-11-19T09:06:26;99665.88;;;13.03;56.62
4570;BME280;2297;51.442;6.996;2023-11-19T09:08:52;99681.34;;;13.14;56.25
4570;BME280;2297;51.442;6.996;2023-11-19T09:11:23;99674.22;;;12.94;57.23
4570;BME280;2297;51.442;6.996;2023-11-19T09:13:50;99673.81;;;13.25;56.08
4570;BME280;2297;51.442;6.996;2023-11-19T09:16:16;99680.22;;;12.97;56.44
4570;BME280;2297;51.442;6.996;2023-11-19T09:18:43;99675.13;;;12.93;57.28
4570;BME280;2297;51.442;6.996;2023-11-19T09:21:11;99683.84;;;13.39;56.21
4570;BME280;2297;51.442;6.996;2023-11-19T09:23:38;99671.50;;;12.95;56.78
4570;BME280;2297;51.442;6.996;2023-11-19T09:26:06;99670.41;;;13.22;56.34
4570;BME280;2297;51.442;6.996;2023-11-19T09:28:35;99661.31;;;13.29;56.17
4570;BME280;2297;51.442;6.996;2023-11-19T09:31:02;99675.69;;;13.44;55.49
4570;BME280;2297;51.442;6.996;2023-11-19T09:33:30;99669.94;;;13.34;55.60
4570;BME280;2297;51.442;6.996;2023-11-19T09:35:57;99669.78;;;13.37;55.86
4570;BME280;2297;51.442;6.996;2023-11-19T09:38:25;99667.72;;;13.01;56.74
4570;BME280;2297;51.442;6.996;2023-11-19T09:40:52;99663.22;;;13.46;55.45
4570;BME280;2297;51.442;6.996;2023-11-19T09:43:19;99681.72;;;13.47;55.04
4570;BME280;2297;51.442;6.996;2023-11-19T09:45:48;99665.00;;;13.25;55.55
4570;BME280;2297;51.442;6.996;2023-11-19T09:48:16;99676.41;;;13.05;55.99
4570;BME280;2297;51.442;6.996;2023-11-19T09:50:44;99666.59;;;13.07;56.04
4570;BME280;2297;51.442;6.996;2023-11-19T09:53:12;99678.13;;;13.69;54.70
4570;BME280;2297;51.442;6.996;2023-11-19T09:55:40;99670.63;;;12.95;55.44
4570;BME280;2297;51.442;6.996;2023-11-19T09:58:08;99678.47;;;13.41;55.08
4570;BME280;2297;51.442;6.996;2023-11-19T10:00:35;99679.06;;;13.27;55.32
4570;BME280;2297;51.442;6.996;2023-11-19T10:03:02;99672.97;;;13.66;54.56
4570;BME280;2297;51.442;6.996;2023-11-19T10:05:30;99684.78;;;13.59;54.31
4570;BME280;2297;51.442;6.996;2023-11-19T10:07:57;99659.47;;;13.31;54.80
4570;BME280;2297;51.442;6.996;2023-11-19T10:10:24;99664.31;;;13.42;54.11
4570;BME280;2297;51.442;6.996;2023-11-19T10:12:52;99668.44;;;13.27;54.41
4570;BME280;2297;51.442;6.996;2023-11-19T10:15:21;99666.88;;;13.43;54.09
4570;BME280;2297;51.442;6.996;2023-11-19T10:17:49;99650.31;;;13.38;53.46
4570;BME280;2297;51.442;6.996;2023-11-19T10:20:16;99659.16;;;13.78;53.01
4570;BME280;2297;51.442;6.996;2023-11-19T10:22:43;99661.16;;;13.73;52.99
4570;BME280;2297;51.442;6.996;2023-11-19T10:25:21;99668.59;;;13.65;53.45
4570;BME280;2297;51.442;6.996;2023-11-19T10:27:48;99660.47;;;13.89;53.01
4570;BME280;2297;51.442;6.996;2023-11-19T10:30:20;99657.19;;;13.63;53.25
4570;BME280;2297;51.442;6.996;2023-11-19T10:33:03;99653.97;;;13.56;52.86
4570;BME280;2297;51.442;6.996;2023-11-19T10:35:31;99665.69;;;13.71;52.54
4570;BME280;2297;51.442;6.996;2023-11-19T10:37:59;99655.47;;;13.62;52.81
4570;BME280;2297;51.442;6.996;2023-11-19T10:40:37;99647.78;;;14.14;51.60
4570;BME280;2297;51.442;6.996;2023-11-19T10:43:04;99669.59;;;13.62;52.59
4570;BME280;2297;51.442;6.996;2023-11-19T10:45:34;99646.13;;;13.53;53.05
4570;BME280;2297;51.442;6.996;2023-11-19T10:48:02;99649.41;;;13.79;52.72
4570;BME280;2297;51.442;6.996;2023-11-19T10:50:29;99639.31;;;14.06;51.82
4570;BME280;2297;51.442;6.996;2023-11-19T10:52:57;99646.28;;;13.90;51.99
4570;BME280;2297;51.442;6.996;2023-11-19T10:55:27;99649.94;;;14.06;51.73
4570;BME280;2297;51.442;6.996;2023-11-19T10:57:58;99650.00;;;13.86;51.97
4570;BME280;2297;51.442;6.996;2023-11-19T11:00:26;99640.97;;;13.90;51.81
4570;BME280;2297;51.442;6.996;2023-11-19T11:02:57;99640.16;;;14.46;50.67
4570;BME280;2297;51.442;6.996;2023-11-19T11:05:26;99638.75;;;14.57;50.53
4570;BME280;2297;51.442;6.996;2023-11-19T11:07:55;99646.13;;;13.93;51.47
4570;BME280;2297;51.442;6.996;2023-11-19T11:10:25;99649.59;;;14.14;51.39
4570;BME280;2297;51.442;6.996;2023-11-19T11:12:52;99633.66;;;13.95;51.65
4570;BME280;2297;51.442;6.996;2023-11-19T11:15:24;99640.97;;;13.90;51.37
4570;BME280;2297;51.442;6.996;2023-11-19T11:17:57;99657.25;;;14.22;51.04
4570;BME280;2297;51.442;6.996;2023-11-19T11:20:25;99640.97;;;13.90;51.07
4570;BME280;2297;51.442;6.996;2023-11-19T11:23:03;99633.00;;;14.29;50.62
4570;BME280;2297;51.442;6.996;2023-11-19T11:25:40;99637.19;;;14.53;49.46
4570;BME280;2297;51.442;6.996;2023-11-19T11:28:28;99638.88;;;13.77;50.99
4570;BME280;2297;51.442;6.996;2023-11-19T11:31:08;99639.25;;;13.89;50.26
4570;BME280;2297;51.442;6.996;2023-11-19T11:33:59;99628.53;;;14.30;49.52
4570;BME280;2297;51.442;6.996;2023-11-19T11:36:31;99639.19;;;14.47;49.20
4570;BME280;2297;51.442;6.996;2023-11-19T11:38:58;99626.47;;;13.97;49.73
4570;BME280;2297;51.442;6.996;2023-11-19T11:41:26;99628.19;;;13.98;49.44
4570;BME280;2297;51.442;6.996;2023-11-19T11:43:53;99625.41;;;14.01;49.54
4570;BME280;2297;51.442;6.996;2023-11-19T11:46:55;99618.56;;;14.35;49.22
4570;BME280;2297;51.442;6.996;2023-11-19T11:49:28;99608.13;;;14.50;48.69
4570;BME280;2297;51.442;6.996;2023-11-19T11:52:03;99602.66;;;14.53;49.08
4570;BME280;2297;51.442;6.996;2023-11-19T11:54:30;99618.00;;;13.89;50.21
4570;BME280;2297;51.442;6.996;2023-11-19T11:57:08;99607.06;;;14.35;49.41
4570;BME280;2297;51.442;6.996;2023-11-19T11:59:42;99605.34;;;14.34;48.83
4570;BME280;2297;51.442;6.996;2023-11-19T12:02:11;99601.53;;;14.39;48.88
4570;BME280;2297;51.442;6.996;2023-11-19T12:04:40;99598.78;;;14.60;48.41
4570;BME280;2297;51.442;6.996;2023-11-19T12:07:11;99590.94;;;14.57;48.35
4570;BME280;2297;51.442;6.996;2023-11-19T12:09:40;99595.03;;;14.64;48.02
4570;BME280;2297;51.442;6.996;2023-11-19T12:12:12;99594.75;;;14.51;48.21
4570;BME280;2297;51.442;6.996;2023-11-19T12:15:00;99609.22;;;14.45;47.88
4570;BME280;2297;51.442;6.996;2023-11-19T12:17:48;99600.59;;;14.40;48.27
4570;BME280;2297;51.442;6.996;2023-11-19T12:20:21;99606.25;;;14.52;48.00
4570;BME280;2297;51.442;6.996;2023-11-19T12:22:48;99602.59;;;14.16;48.91
4570;BME280;2297;51.442;6.996;2023-11-19T12:25:17;99598.63;;;14.63;47.70
4570;BME280;2297;51.442;6.996;2023-11-19T12:27:45;99583.63;;;14.25;48.27
4570;BME280;2297;51.442;6.996;2023-11-19T12:30:17;99573.13;;;14.59;47.56
4570;BME280;2297;51.442;6.996;2023-11-19T12:32:45;99592.78;;;14.37;47.61
4570;BME280;2297;51.442;6.996;2023-11-19T12:35:12;99573.00;;;14.79;47.52
4570;BME280;2297;51.442;6.996;2023-11-19T12:37:41;99564.31;;;14.22;48.10
4570;BME280;2297;51.442;6.996;2023-11-19T12:40:18;99563.72;;;14.52;48.00
4570;BME280;2297;51.442;6.996;2023-11-19T12:42:45;99566.81;;;14.25;48.19
4570;BME280;2297;51.442;6.996;2023-11-19T12:45:12;99568.66;;;14.42;47.94
4570;BME280;2297;51.442;6.996;2023-11-19T12:47:39;99565.72;;;14.66;48.45
4570;BME280;2297;51.442;6.996;2023-11-19T12:50:07;99562.13;;;14.11;52.52
4570;BME280;2297;51.442;6.996;2023-11-19T12:52:35;99567.81;;;13.84;52.94
4570;BME280;2297;51.442;6.996;2023-11-19T12:55:03;99566.78;;;13.68;53.38
4570;BME280;2297;51.442;6.996;2023-11-19T12:57:39;99565.28;;;13.62;53.53
4570;BME280;2297;51.442;6.996;2023-11-19T13:00:06;99571.56;;;13.40;53.65
4570;BME280;2297;51.442;6.996;2023-11-19T13:02:46;99588.22;;;13.82;53.05
4570;BME280;2297;51.442;6.996;2023-11-19T13:05:23;99585.06;;;13.34;53.79
4570;BME280;2297;51.442;6.996;2023-11-19T13:07:51;99583.00;;;13.80;52.94
4570;BME280;2297;51.442;6.996;2023-11-19T13:10:20;99592.13;;;13.94;52.73
4570;BME280;2297;51.442;6.996;2023-11-19T13:13:00;99599.00;;;13.98;52.53
4570;BME280;2297;51.442;6.996;2023-11-19T13:15:27;99604.75;;;13.89;52.75
4570;BME280;2297;51.442;6.996;2023-11-19T13:17:54;99595.72;;;13.53;52.89
4570;BME280;2297;51.442;6.996;2023-11-19T13:20:20;99597.19;;;13.60;52.65
4570;BME280;2297;51.442;6.996;2023-11-19T13:22:55;99593.09;;;14.10;51.42
4570;BME280;2297;51.442;6.996;2023-11-19T13:25:23;99589.63;;;13.91;51.70
4570;BME280;2297;51.442;6.996;2023-11-19T13:27:49;99586.06;;;13.71;52.19